Time;durP1;ratioP1;P1;durP2;ratioP2;P2;SDS_P1;SDS_P2;PMS_P1;PMS_P2;Temp;Humidity;BMP_temperature;BMP_pressure;BME280_temperature;BME280_humidity;BME280_pressure;Samples;Min_cycle;Max_cycle;Signal;HPM_P1;HPM_P2
2024/03/05 00:07:55;;;;;;;;;;;6.70;99.90;;;;;;21051254;28;19916;-76
2024/03/05 00:17:56;;;;;;;;;;;6.70;99.90;;;;;;21044165;28;19920;-77
2024/03/05 00:27:57;;;;;;;;;;;6.70;99.90;;;;;;21030638;28;19912;-77
2024/03/05 00:37:57;;;;;;;;;;;6.60;99.90;;;;;;21050548;28;19917;-77
2024/03/05 00:47:58;;;;;;;;;;;6.60;99.90;;;;;;21059540;28;19913;-77
2024/03/05 00:57:59;;;;;;;;;;;6.60;99.90;;;;;;21048189;28;19916;-77
2024/03/05 01:07:59;;;;;;;;;;;6.60;99.90;;;;;;21034549;28;20362;-77
2024/03/05 01:18:01;;;;;;;;;;;6.50;99.90;;;;;;21043956;28;19978;-77
2024/03/05 01:28:02;;;;;;;;;;;6.40;99.90;;;;;;21029327;28;19912;-76
2024/03/05 01:38:03;;;;;;;;;;;6.30;99.90;;;;;;21060328;28;19940;-77
2024/03/05 01:48:04;;;;;;;;;;;6.30;99.90;;;;;;21024809;28;19916;-78
2024/03/05 01:58:07;;;;;;;;;;;6.30;99.90;;;;;;21025368;28;20268;-78
2024/03/05 02:08:08;;;;;;;;;;;6.30;99.90;;;;;;21043988;28;20257;-77
2024/03/05 02:18:09;;;;;;;;;;;6.20;99.90;;;;;;21029058;28;19982;-77
2024/03/05 02:28:10;;;;;;;;;;;6.20;99.90;;;;;;21039062;28;19920;-77
2024/03/05 02:38:11;;;;;;;;;;;6.20;99.90;;;;;;21037272;28;19916;-77
2024/03/05 02:48:11;;;;;;;;;;;6.20;99.90;;;;;;21044853;28;19919;-78
2024/03/05 02:58:12;;;;;;;;;;;6.20;99.90;;;;;;21029903;28;20552;-78
2024/03/05 03:08:13;;;;;;;;;;;6.20;99.90;;;;;;21038173;28;19912;-78
2024/03/05 03:18:14;;;;;;;;;;;6.30;99.90;;;;;;21044899;28;19940;-78
2024/03/05 03:28:14;;;;;;;;;;;6.30;99.90;;;;;;21052464;28;19912;-78
2024/03/05 03:38:15;;;;;;;;;;;6.20;99.90;;;;;;21054806;28;19970;-77
2024/03/05 03:48:15;;;;;;;;;;;6.10;99.90;;;;;;21063296;28;19916;-78
2024/03/05 03:58:17;;;;;;;;;;;6.20;99.90;;;;;;21055178;28;19924;-79
2024/03/05 04:08:17;;;;;;;;;;;6.10;99.90;;;;;;21068525;28;19919;-77
2024/03/05 04:18:18;;;;;;;;;;;6.10;99.90;;;;;;21062407;28;19916;-77
2024/03/05 04:28:20;;;;;;;;;;;6.10;99.90;;;;;;21061424;28;19912;-79
2024/03/05 04:38:21;;;;;;;;;;;6.10;99.90;;;;;;21072752;28;20348;-78
2024/03/05 04:48:22;;;;;;;;;;;6.00;99.90;;;;;;21072654;28;19912;-78
2024/03/05 04:58:22;;;;;;;;;;;6.00;99.90;;;;;;21057471;28;19923;-76
2024/03/05 05:08:23;;;;;;;;;;;6.00;99.90;;;;;;21043943;28;20006;-77
2024/03/05 05:18:24;;;;;;;;;;;6.00;99.90;;;;;;21068412;28;20041;-77
2024/03/05 05:28:24;;;;;;;;;;;6.00;99.90;;;;;;21061918;28;20011;-77
2024/03/05 05:38:25;;;;;;;;;;;6.00;99.90;;;;;;21078533;28;19923;-76
2024/03/05 05:48:26;;;;;;;;;;;6.10;99.90;;;;;;21080834;28;20433;-80
2024/03/05 05:58:26;;;;;;;;;;;6.10;99.90;;;;;;21100469;28;19927;-80
2024/03/05 06:08:27;;;;;;;;;;;6.10;99.90;;;;;;21105854;28;20376;-79
2024/03/05 06:18:29;;;;;;;;;;;6.10;99.90;;;;;;21104021;28;20417;-79
2024/03/05 06:28:29;;;;;;;;;;;6.10;99.90;;;;;;21103203;28;19934;-80
2024/03/05 06:38:31;;;;;;;;;;;6.10;99.90;;;;;;21088159;28;20002;-79
2024/03/05 06:48:32;;;;;;;;;;;6.10;99.90;;;;;;21096675;28;19934;-78
2024/03/05 06:58:35;;;;;;;;;;;5.90;99.90;;;;;;21099573;28;19916;-80
2024/03/05 07:08:39;;;;;;;;;;;5.90;99.90;;;;;;21098355;28;19916;-79
2024/03/05 07:18:40;;;;;;;;;;;5.90;99.90;;;;;;21099533;28;20348;-81
2024/03/05 07:28:41;;;;;;;;;;;5.90;99.90;;;;;;21102915;28;19965;-77
2024/03/05 07:38:41;;;;;;;;;;;5.90;99.90;;;;;;21100543;28;19916;-79
2024/03/05 07:48:42;;;;;;;;;;;5.80;99.90;;;;;;21100518;28;19912;-79
2024/03/05 07:58:42;;;;;;;;;;;5.90;99.90;;;;;;21101841;28;19924;-79
2024/03/05 08:08:43;;;;;;;;;;;6.00;99.90;;;;;;21096260;28;19937;-77
2024/03/05 08:18:44;;;;;;;;;;;6.20;99.90;;;;;;21096726;28;19916;-77
2024/03/05 08:28:45;;;;;;;;;;;6.40;99.90;;;;;;21112434;28;20060;-78
2024/03/05 08:38:45;;;;;;;;;;;6.60;99.90;;;;;;21088274;28;19917;-77
2024/03/05 08:48:46;;;;;;;;;;;6.60;99.90;;;;;;21065594;28;20064;-77
2024/03/05 08:58:46;;;;;;;;;;;6.30;99.90;;;;;;21077743;28;19920;-77
2024/03/05 09:08:47;;;;;;;;;;;6.30;99.90;;;;;;21044051;28;19912;-77
2024/03/05 09:18:48;;;;;;;;;;;6.50;99.90;;;;;;21057109;28;19941;-80
2024/03/05 09:28:48;;;;;;;;;;;6.70;99.90;;;;;;21088840;28;19912;-79
2024/03/05 09:38:49;;;;;;;;;;;6.80;99.90;;;;;;21058713;28;19923;-77
2024/03/05 09:48:50;;;;;;;;;;;6.70;99.90;;;;;;21064633;28;19913;-78
2024/03/05 09:58:51;;;;;;;;;;;6.80;99.90;;;;;;21040536;28;19916;-77
2024/03/05 10:08:54;;;;;;;;;;;6.80;99.90;;;;;;21063987;28;20001;-79
2024/03/05 10:18:54;;;;;;;;;;;6.80;99.90;;;;;;21058322;28;19917;-76
2024/03/05 10:28:59;;;;;;;;;;;6.60;99.90;;;;;;21025450;28;19958;-77
2024/03/05 10:39:03;;;;;;;;;;;6.60;99.90;;;;;;21034688;28;20330;-78
2024/03/05 10:49:05;;;;;;;;;;;6.70;99.90;;;;;;21019948;28;19912;-76
2024/03/05 11:09:21;;;;;;;;;;;7.00;99.90;;;;;;21031128;28;19920;-77
2024/03/05 11:19:22;;;;;;;;;;;7.00;99.90;;;;;;21043603;28;19923;-77
2024/03/05 11:29:29;;;;;;;;;;;8.20;99.90;;;;;;21059984;28;20367;-77
2024/03/05 11:39:30;;;;;;;;;;;8.80;99.90;;;;;;21027594;28;19985;-77
2024/03/05 11:49:34;;;;;;;;;;;8.40;99.90;;;;;;21078936;28;19913;-77
2024/03/05 11:59:38;;;;;;;;;;;8.60;99.90;;;;;;21072734;28;19924;-74
2024/03/05 12:09:39;;;;;;;;;;;9.90;99.90;;;;;;21072848;28;19970;-78
2024/03/05 12:19:41;;;;;;;;;;;9.20;99.90;;;;;;21054668;28;20280;-78
2024/03/05 12:29:44;;;;;;;;;;;8.80;99.90;;;;;;21091446;28;19920;-79
2024/03/05 12:39:44;;;;;;;;;;;8.80;99.90;;;;;;21104789;28;19916;-79
2024/03/05 12:49:46;;;;;;;;;;;8.70;99.90;;;;;;21101080;28;19912;-79
2024/03/05 12:59:47;;;;;;;;;;;8.80;99.90;;;;;;21104315;28;19943;-81
2024/03/05 13:09:50;;;;;;;;;;;8.80;99.90;;;;;;21105211;28;19973;-80
2024/03/05 13:19:51;;;;;;;;;;;9.30;99.90;;;;;;21105261;28;19923;-80
2024/03/05 13:29:51;;;;;;;;;;;9.40;99.90;;;;;;21138341;28;19912;-80
2024/03/05 13:39:52;;;;;;;;;;;9.50;99.90;;;;;;21144497;28;19919;-78
2024/03/05 13:49:53;;;;;;;;;;;9.50;99.90;;;;;;21111740;28;19955;-80
2024/03/05 13:59:54;;;;;;;;;;;9.50;99.90;;;;;;21086949;28;19916;-80
2024/03/05 14:09:56;;;;;;;;;;;9.50;99.90;;;;;;21070941;28;19920;-81
2024/03/05 14:19:57;;;;;;;;;;;9.40;99.90;;;;;;21077813;28;19923;-82
2024/03/05 14:29:57;;;;;;;;;;;9.20;99.90;;;;;;21058646;28;19916;-79
2024/03/05 14:39:59;;;;;;;;;;;9.40;99.90;;;;;;21066039;28;19917;-79
2024/03/05 14:49:59;;;;;;;;;;;9.50;99.90;;;;;;21087489;28;19912;-80
2024/03/05 15:00:00;;;;;;;;;;;9.60;99.90;;;;;;21078320;28;19923;-80
2024/03/05 15:10:00;;;;;;;;;;;9.50;99.90;;;;;;21060671;28;19923;-81
2024/03/05 15:20:08;;;;;;;;;;;9.30;99.90;;;;;;21060773;28;19923;-79
2024/03/05 15:30:13;;;;;;;;;;;9.50;99.90;;;;;;21074875;28;19984;-80
2024/03/05 15:40:20;;;;;;;;;;;10.00;99.90;;;;;;21107655;28;19915;-82
2024/03/05 15:50:22;;;;;;;;;;;10.70;99.90;;;;;;21122522;28;19912;-80
2024/03/05 16:00:28;;;;;;;;;;;10.80;99.90;;;;;;21123039;28;19916;-82
2024/03/05 16:10:30;;;;;;;;;;;10.90;99.90;;;;;;21125236;28;19924;-79
2024/03/05 16:20:30;;;;;;;;;;;10.00;99.90;;;;;;21107265;28;19916;-80
2024/03/05 16:30:33;;;;;;;;;;;9.70;99.90;;;;;;21106364;28;19943;-80
2024/03/05 16:40:37;;;;;;;;;;;9.60;99.90;;;;;;21104500;28;19924;-80
2024/03/05 16:50:38;;;;;;;;;;;9.20;99.90;;;;;;21085575;28;19923;-79
2024/03/05 17:00:50;;;;;;;;;;;9.10;99.90;;;;;;21089779;28;19961;-80
2024/03/05 17:10:53;;;;;;;;;;;8.80;99.90;;;;;;21071535;28;19916;-80
2024/03/05 17:20:53;;;;;;;;;;;8.40;99.90;;;;;;21072767;28;20292;-81
2024/03/05 17:30:54;;;;;;;;;;;8.00;99.90;;;;;;21083139;28;19964;-80
2024/03/05 17:40:55;;;;;;;;;;;7.70;99.90;;;;;;21066113;28;19916;-80
2024/03/05 17:50:55;;;;;;;;;;;7.80;99.90;;;;;;21087095;28;20519;-80
2024/03/05 18:00:56;;;;;;;;;;;7.60;99.90;;;;;;21086638;28;19916;-80
2024/03/05 18:10:57;;;;;;;;;;;7.70;99.90;;;;;;21087867;28;19920;-80
2024/03/05 18:20:58;;;;;;;;;;;7.60;99.90;;;;;;21090901;28;19920;-80
2024/03/05 18:31:00;;;;;;;;;;;7.60;99.90;;;;;;21075922;28;19919;-81
2024/03/05 18:41:02;;;;;;;;;;;7.50;99.90;;;;;;21091879;28;19923;-79
2024/03/05 18:51:03;;;;;;;;;;;7.50;99.90;;;;;;21085799;28;19919;-80
2024/03/05 19:01:03;;;;;;;;;;;7.40;99.90;;;;;;21060333;28;20306;-80
2024/03/05 19:11:06;;;;;;;;;;;7.50;99.90;;;;;;21045753;28;19923;-81
2024/03/05 19:21:07;;;;;;;;;;;7.50;99.90;;;;;;21056089;28;19916;-81
2024/03/05 19:31:09;;;;;;;;;;;7.40;99.90;;;;;;21047702;28;19916;-80
2024/03/05 19:41:11;;;;;;;;;;;7.20;99.90;;;;;;21052215;28;19923;-80
2024/03/05 19:51:12;;;;;;;;;;;7.10;99.90;;;;;;21079577;28;19966;-79
2024/03/05 20:01:14;;;;;;;;;;;7.00;99.90;;;;;;21097871;28;20401;-81
2024/03/05 20:11:15;;;;;;;;;;;7.00;99.90;;;;;;21072827;28;19957;-81
2024/03/05 20:21:16;;;;;;;;;;;7.00;99.90;;;;;;21052730;28;20428;-80
2024/03/05 20:31:20;;;;;;;;;;;6.80;99.90;;;;;;21099978;28;19912;-80
2024/03/05 20:41:21;;;;;;;;;;;6.80;99.90;;;;;;21092274;28;19916;-78
2024/03/05 20:51:22;;;;;;;;;;;6.70;99.90;;;;;;21060308;28;19991;-81
2024/03/05 21:01:23;;;;;;;;;;;6.70;99.90;;;;;;21038162;28;19916;-81
2024/03/05 21:11:23;;;;;;;;;;;6.70;99.90;;;;;;21036716;28;19916;-81
2024/03/05 21:21:24;;;;;;;;;;;6.60;99.90;;;;;;21044027;28;20299;-79
2024/03/05 21:31:25;;;;;;;;;;;6.50;99.90;;;;;;21035376;28;19943;-80
2024/03/05 21:41:26;;;;;;;;;;;6.40;99.90;;;;;;21040209;28;19958;-79
2024/03/05 21:51:26;;;;;;;;;;;6.40;99.90;;;;;;21046973;28;19967;-79
2024/03/05 22:01:27;;;;;;;;;;;6.30;99.90;;;;;;21042944;28;20158;-79
2024/03/05 22:11:28;;;;;;;;;;;6.20;99.90;;;;;;21048324;28;19926;-78
2024/03/05 22:21:29;;;;;;;;;;;6.00;99.90;;;;;;21114843;28;19924;-78
2024/03/05 22:31:29;;;;;;;;;;;5.90;99.90;;;;;;21061736;28;19920;-79
2024/03/05 22:41:30;;;;;;;;;;;5.80;99.90;;;;;;21080321;28;20001;-80
2024/03/05 22:51:31;;;;;;;;;;;5.70;99.90;;;;;;21020850;28;19973;-80
2024/03/05 23:01:31;;;;;;;;;;;5.60;99.90;;;;;;21044950;28;19922;-82
2024/03/05 23:11:32;;;;;;;;;;;5.70;99.90;;;;;;21038339;28;19968;-81
2024/03/05 23:21:33;;;;;;;;;;;5.60;99.90;;;;;;21029693;28;19959;-79
2024/03/05 23:31:33;;;;;;;;;;;5.50;99.90;;;;;;21035378;28;19913;-80
2024/03/05 23:41:34;;;;;;;;;;;5.40;99.90;;;;;;21081699;28;19916;-79
2024/03/05 23:51:34;;;;;;;;;;;5.40;99.90;;;;;;21079630;28;19919;-80
